createdAt,value
2018-07-09T00:00:27.934Z,0
2018-07-09T00:01:33.336Z,0
2018-07-09T00:02:38.752Z,0
2018-07-09T00:03:44.161Z,0
2018-07-09T00:04:49.566Z,0
2018-07-09T00:05:54.970Z,0
2018-07-09T00:07:00.374Z,0
2018-07-09T00:08:05.790Z,0
2018-07-09T00:09:11.193Z,0
2018-07-09T00:10:16.598Z,0
2018-07-09T00:11:22.003Z,0
2018-07-09T00:12:27.405Z,0
2018-07-09T00:13:33.811Z,0
2018-07-09T00:14:40.207Z,0
2018-07-09T00:15:45.611Z,0
2018-07-09T00:16:51.016Z,0
2018-07-09T00:17:56.448Z,0
2018-07-09T00:19:01.851Z,0
2018-07-09T00:20:07.252Z,0
2018-07-09T00:21:12.652Z,0
2018-07-09T00:22:18.052Z,0
2018-07-09T00:23:24.460Z,0
2018-07-09T00:24:29.862Z,0
2018-07-09T00:25:35.269Z,0
2018-07-09T00:26:40.673Z,0
2018-07-09T00:27:46.079Z,0
2018-07-09T00:28:51.494Z,0
2018-07-09T00:29:56.894Z,0
2018-07-09T00:31:02.337Z,0
2018-07-09T00:32:07.741Z,0
2018-07-09T00:33:13.155Z,0
2018-07-09T00:34:18.560Z,0
2018-07-09T00:35:24.958Z,0
2018-07-09T00:36:30.364Z,0
2018-07-09T00:37:35.768Z,0
2018-07-09T00:38:41.175Z,0
2018-07-09T00:39:46.585Z,0
2018-07-09T00:40:52.975Z,0
2018-07-09T00:41:58.376Z,0
2018-07-09T00:43:03.780Z,0
2018-07-09T00:44:09.193Z,0
2018-07-09T00:45:14.602Z,0
2018-07-09T00:46:20.004Z,0
2018-07-09T00:47:25.408Z,0
2018-07-09T00:48:30.820Z,0
2018-07-09T00:49:36.223Z,0
2018-07-09T00:50:41.625Z,0
2018-07-09T00:51:47.029Z,0
2018-07-09T00:52:52.432Z,0
2018-07-09T00:53:57.845Z,0
2018-07-09T00:55:03.249Z,0
2018-07-09T00:56:08.660Z,0
2018-07-09T00:57:14.060Z,0
2018-07-09T00:58:19.466Z,0
2018-07-09T00:59:24.886Z,0
2018-07-09T01:00:30.281Z,0
2018-07-09T01:01:35.686Z,0
2018-07-09T01:02:41.092Z,0
2018-07-09T01:03:46.498Z,0
2018-07-09T01:04:51.924Z,0
2018-07-09T01:05:57.336Z,0
2018-07-09T01:07:02.734Z,0
2018-07-09T01:08:08.138Z,0
2018-07-09T01:09:13.549Z,0
2018-07-09T01:10:18.953Z,0
2018-07-09T01:11:25.348Z,0
2018-07-09T01:12:30.752Z,0
2018-07-09T01:13:36.154Z,0
2018-07-09T01:14:41.568Z,0
2018-07-09T01:15:46.970Z,0
2018-07-09T01:16:52.373Z,0
2018-07-09T01:17:57.780Z,0
2018-07-09T01:19:03.190Z,0
2018-07-09T01:20:08.591Z,0
2018-07-09T01:21:13.993Z,0
2018-07-09T01:22:19.396Z,0
2018-07-09T01:23:24.800Z,0
2018-07-09T01:24:30.214Z,0
2018-07-09T01:25:35.622Z,0
2018-07-09T01:26:41.026Z,0
2018-07-09T01:27:46.427Z,0
2018-07-09T01:28:51.832Z,0
2018-07-09T01:29:57.260Z,0
2018-07-09T01:31:02.664Z,0
2018-07-09T01:32:08.069Z,0
2018-07-09T01:33:13.483Z,0
2018-07-09T01:34:18.896Z,0
2018-07-09T01:35:24.296Z,0
2018-07-09T01:36:44.435Z,0
2018-07-09T01:37:49.838Z,0
2018-07-09T01:38:55.239Z,0
2018-07-09T01:40:00.662Z,0
2018-07-09T01:41:06.068Z,0
2018-07-09T01:42:11.473Z,0
2018-07-09T01:43:16.876Z,0
2018-07-09T01:44:22.280Z,0
2018-07-09T01:45:27.692Z,0
2018-07-09T01:46:33.095Z,0
2018-07-09T01:47:38.499Z,0
2018-07-09T01:48:43.906Z,0
2018-07-09T01:49:49.309Z,0
2018-07-09T01:50:54.740Z,0
2018-07-09T01:52:00.146Z,0
2018-07-09T01:53:05.550Z,0
2018-07-09T01:54:11.949Z,0
2018-07-09T01:55:17.360Z,0
2018-07-09T01:56:22.769Z,0
2018-07-09T01:57:28.167Z,0
2018-07-09T01:58:33.574Z,0
2018-07-09T01:59:38.984Z,0
2018-07-09T02:00:44.401Z,0
2018-07-09T02:01:49.809Z,0
2018-07-09T02:02:56.207Z,0
2018-07-09T02:04:01.612Z,0
2018-07-09T02:05:07.033Z,0
2018-07-09T02:06:12.434Z,0
2018-07-09T02:07:18.831Z,0
2018-07-09T02:08:24.237Z,0
2018-07-09T02:09:29.640Z,0
2018-07-09T02:10:35.054Z,0
2018-07-09T02:11:40.456Z,0
2018-07-09T02:12:45.885Z,0
2018-07-09T02:13:52.278Z,0
2018-07-09T02:14:57.685Z,0
2018-07-09T02:16:03.100Z,0
2018-07-09T02:17:08.500Z,0
2018-07-09T02:18:13.905Z,0
2018-07-09T02:19:19.313Z,0
2018-07-09T02:20:24.743Z,0
2018-07-09T02:21:30.154Z,0
2018-07-09T02:22:35.555Z,0
2018-07-09T02:23:40.961Z,0
2018-07-09T02:24:46.364Z,0
2018-07-09T02:25:51.774Z,0
2018-07-09T02:26:57.174Z,0
2018-07-09T02:28:02.580Z,0
2018-07-09T02:29:07.984Z,0
2018-07-09T02:30:13.395Z,0
2018-07-09T02:31:18.814Z,0
2018-07-09T02:32:24.221Z,0
2018-07-09T02:33:29.621Z,0
2018-07-09T02:34:35.051Z,0
2018-07-09T02:35:40.428Z,0
2018-07-09T02:36:45.850Z,0
2018-07-09T02:37:51.258Z,0
2018-07-09T02:38:56.663Z,0
2018-07-09T02:40:02.071Z,0
2018-07-09T02:41:08.486Z,1
2018-07-09T02:42:13.890Z,1
2018-07-09T02:43:19.292Z,0
2018-07-09T02:44:25.686Z,0
2018-07-09T02:45:32.081Z,1
2018-07-09T02:46:38.490Z,1
2018-07-09T02:47:43.898Z,1
2018-07-09T02:48:49.301Z,1
2018-07-09T02:49:54.707Z,1
2018-07-09T02:51:00.111Z,2
2018-07-09T02:52:05.527Z,1
2018-07-09T02:53:10.933Z,2
2018-07-09T02:54:16.337Z,2
2018-07-09T02:55:22.734Z,2
2018-07-09T02:56:28.151Z,3
2018-07-09T02:57:33.547Z,3
2018-07-09T02:58:38.953Z,3
2018-07-09T02:59:44.357Z,4
2018-07-09T03:00:49.846Z,4
2018-07-09T03:01:55.179Z,5
2018-07-09T03:03:00.592Z,6
2018-07-09T03:04:05.994Z,6
2018-07-09T03:05:11.402Z,6
2018-07-09T03:06:16.806Z,8
2018-07-09T03:07:22.224Z,8
2018-07-09T03:08:28.617Z,9
2018-07-09T03:09:34.022Z,10
2018-07-09T03:10:39.426Z,11
2018-07-09T03:11:44.851Z,12
2018-07-09T03:12:50.258Z,13
2018-07-09T03:13:56.654Z,15
2018-07-09T03:15:02.058Z,16
2018-07-09T03:16:07.462Z,17
2018-07-09T03:17:12.876Z,19
2018-07-09T03:18:18.275Z,21
2018-07-09T03:19:24.667Z,22
2018-07-09T03:20:30.069Z,25
2018-07-09T03:21:35.469Z,27
2018-07-09T03:22:41.873Z,29
2018-07-09T03:23:47.277Z,31
2018-07-09T03:24:52.687Z,34
2018-07-09T03:25:58.100Z,36
2018-07-09T03:27:03.505Z,38
2018-07-09T03:28:08.912Z,41
2018-07-09T03:29:14.315Z,44
2018-07-09T03:30:20.710Z,47
2018-07-09T03:31:26.120Z,50
2018-07-09T03:32:31.530Z,54
2018-07-09T03:33:36.933Z,57
2018-07-09T03:34:42.341Z,61
2018-07-09T03:35:47.747Z,65
2018-07-09T03:36:53.149Z,69
2018-07-09T03:37:58.566Z,72
2018-07-09T03:39:03.969Z,77
2018-07-09T03:40:09.369Z,80
2018-07-09T03:41:14.777Z,84
2018-07-09T03:42:20.181Z,88
2018-07-09T03:43:25.591Z,91
2018-07-09T03:44:30.993Z,94
2018-07-09T03:45:36.397Z,98
2018-07-09T03:46:41.804Z,101
2018-07-09T03:47:47.208Z,105
2018-07-09T03:48:52.625Z,109
2018-07-09T03:49:58.034Z,113
2018-07-09T03:51:03.437Z,117
2018-07-09T03:52:08.841Z,119
2018-07-09T03:53:14.256Z,123
2018-07-09T03:54:19.665Z,126
2018-07-09T03:55:25.074Z,130
2018-07-09T03:56:30.483Z,134
2018-07-09T03:57:35.891Z,137
2018-07-09T03:58:41.309Z,141
2018-07-09T03:59:46.714Z,145
2018-07-09T04:00:52.124Z,148
2018-07-09T04:01:57.527Z,152
2018-07-09T04:03:02.936Z,154
2018-07-09T04:04:08.354Z,158
2018-07-09T04:05:13.758Z,161
2018-07-09T04:06:19.159Z,165
2018-07-09T04:07:24.562Z,168
2018-07-09T04:08:29.975Z,172
2018-07-09T04:09:35.383Z,175
2018-07-09T04:10:40.792Z,179
2018-07-09T04:11:46.194Z,183
2018-07-09T04:12:51.605Z,186
2018-07-09T04:13:58.005Z,188
2018-07-09T04:15:03.405Z,192
2018-07-09T04:16:08.810Z,195
2018-07-09T04:17:14.218Z,200
2018-07-09T04:18:19.644Z,205
2018-07-09T04:19:25.047Z,214
2018-07-09T04:20:30.451Z,225
2018-07-09T04:21:35.861Z,230
2018-07-09T04:22:41.267Z,230
2018-07-09T04:23:46.680Z,229
2018-07-09T04:24:52.087Z,249
2018-07-09T04:25:58.478Z,272
2018-07-09T04:27:03.882Z,279
2018-07-09T04:28:09.289Z,323
2018-07-09T04:29:14.705Z,344
2018-07-09T04:30:20.119Z,334
2018-07-09T04:31:25.527Z,330
2018-07-09T04:32:30.930Z,311
2018-07-09T04:33:36.352Z,306
2018-07-09T04:34:41.762Z,301
2018-07-09T04:35:47.174Z,302
2018-07-09T04:36:52.577Z,310
2018-07-09T04:37:58.974Z,348
2018-07-09T04:39:04.393Z,391
2018-07-09T04:40:09.800Z,388
2018-07-09T04:41:16.197Z,418
2018-07-09T04:42:21.611Z,403
2018-07-09T04:43:27.022Z,391
2018-07-09T04:44:32.435Z,411
2018-07-09T04:45:37.844Z,411
2018-07-09T04:46:43.248Z,423
2018-07-09T04:47:48.646Z,440
2018-07-09T04:48:54.068Z,464
2018-07-09T04:49:59.477Z,478
2018-07-09T04:51:04.883Z,470
2018-07-09T04:52:10.287Z,497
2018-07-09T04:53:15.689Z,521
2018-07-09T04:54:21.112Z,529
2018-07-09T04:55:26.514Z,519
2018-07-09T04:56:31.919Z,534
2018-07-09T04:57:37.323Z,480
2018-07-09T04:58:42.729Z,497
2018-07-09T04:59:48.144Z,496
2018-07-09T05:00:53.546Z,446
2018-07-09T05:01:58.952Z,405
2018-07-09T05:03:04.359Z,345
2018-07-09T05:04:09.768Z,324
2018-07-09T05:05:15.181Z,318
2018-07-09T05:06:20.591Z,318
2018-07-09T05:07:26.992Z,315
2018-07-09T05:08:32.396Z,322
2018-07-09T05:09:37.803Z,328
2018-07-09T05:10:43.219Z,327
2018-07-09T05:11:48.626Z,322
2018-07-09T05:12:54.080Z,331
2018-07-09T05:13:59.434Z,354
2018-07-09T05:15:04.850Z,358
2018-07-09T05:16:10.271Z,370
2018-07-09T05:17:15.679Z,355
2018-07-09T05:18:21.083Z,352
2018-07-09T05:19:27.474Z,355
2018-07-09T05:20:32.900Z,360
2018-07-09T05:21:38.292Z,361
2018-07-09T05:22:43.695Z,386
2018-07-09T05:23:49.105Z,384
2018-07-09T05:24:54.522Z,414
2018-07-09T05:25:59.928Z,434
2018-07-09T05:27:05.334Z,505
2018-07-09T05:28:10.737Z,641
2018-07-09T05:29:17.131Z,738
2018-07-09T05:30:22.548Z,778
2018-07-09T05:31:28.946Z,791
2018-07-09T05:32:35.347Z,810
2018-07-09T05:33:40.752Z,832
2018-07-09T05:34:46.173Z,851
2018-07-09T05:35:51.588Z,840
2018-07-09T05:36:56.992Z,846
2018-07-09T05:38:02.421Z,799
2018-07-09T05:39:07.819Z,748
2018-07-09T05:40:13.232Z,765
2018-07-09T05:41:18.638Z,814
2018-07-09T05:42:24.049Z,817
2018-07-09T05:43:29.450Z,918
2018-07-09T05:44:34.852Z,973
2018-07-09T05:45:41.278Z,941
2018-07-09T05:46:46.680Z,919
2018-07-09T05:47:52.083Z,921
2018-07-09T05:48:57.509Z,942
2018-07-09T05:50:02.914Z,1007
2018-07-09T05:51:08.325Z,1004
2018-07-09T05:52:13.749Z,908
2018-07-09T05:53:19.158Z,852
2018-07-09T05:54:24.561Z,827
2018-07-09T05:55:29.984Z,680
2018-07-09T05:56:35.382Z,588
2018-07-09T05:57:40.788Z,485
2018-07-09T05:58:46.193Z,486
2018-07-09T05:59:51.605Z,524
2018-07-09T06:00:57.020Z,545
2018-07-09T06:02:02.424Z,591
2018-07-09T06:03:07.827Z,648
2018-07-09T06:04:13.237Z,699
2018-07-09T06:05:18.640Z,769
2018-07-09T06:06:24.064Z,850
2018-07-09T06:07:29.471Z,806
2018-07-09T06:08:34.872Z,859
2018-07-09T06:09:40.277Z,894
2018-07-09T06:10:45.697Z,868
2018-07-09T06:11:51.092Z,753
2018-07-09T06:12:56.501Z,819
2018-07-09T06:14:01.904Z,1039
2018-07-09T06:15:07.314Z,1103
2018-07-09T06:16:12.724Z,1238
2018-07-09T06:17:18.131Z,1275
2018-07-09T06:18:23.538Z,1261
2018-07-09T06:19:29.085Z,1258
2018-07-09T06:20:34.367Z,1272
2018-07-09T06:21:39.768Z,1272
2018-07-09T06:22:45.174Z,1296
2018-07-09T06:23:50.580Z,1307
2018-07-09T06:24:55.985Z,1301
2018-07-09T06:26:01.400Z,1295
2018-07-09T06:27:06.804Z,1282
2018-07-09T06:28:12.209Z,1274
2018-07-09T06:29:18.605Z,1284
2018-07-09T06:30:24.011Z,1306
2018-07-09T06:31:29.459Z,1299
2018-07-09T06:32:34.835Z,1247
2018-07-09T06:33:40.243Z,1213
2018-07-09T06:34:45.644Z,1198
2018-07-09T06:35:51.074Z,1250
2018-07-09T06:36:56.480Z,1321
2018-07-09T06:38:02.878Z,1450
2018-07-09T06:39:08.283Z,1481
2018-07-09T06:40:13.687Z,1497
2018-07-09T06:41:19.100Z,1496
2018-07-09T06:42:24.502Z,1500
2018-07-09T06:43:29.907Z,1507
2018-07-09T06:44:35.336Z,1582
2018-07-09T06:45:40.712Z,1619
2018-07-09T06:46:46.127Z,1595
2018-07-09T06:47:51.533Z,1593
2018-07-09T06:48:56.938Z,1605
2018-07-09T06:50:02.403Z,1627
2018-07-09T06:51:08.742Z,1628
2018-07-09T06:52:14.163Z,1544
2018-07-09T06:53:19.566Z,1526
2018-07-09T06:54:24.976Z,1533
2018-07-09T06:55:31.373Z,1353
2018-07-09T06:56:36.789Z,1462
2018-07-09T06:57:42.197Z,1534
2018-07-09T06:58:47.608Z,1602
2018-07-09T06:59:53.014Z,1651
2018-07-09T07:00:58.421Z,1613
2018-07-09T07:02:03.853Z,1518
2018-07-09T07:03:09.266Z,1575
2018-07-09T07:04:14.677Z,1670
2018-07-09T07:05:20.087Z,1667
2018-07-09T07:06:25.491Z,1694
2018-07-09T07:07:30.907Z,1846
2018-07-09T07:08:36.379Z,1920
2018-07-09T07:09:41.718Z,1981
2018-07-09T07:10:47.126Z,1973
2018-07-09T07:11:52.549Z,1944
2018-07-09T07:12:57.955Z,1855
2018-07-09T07:14:03.386Z,2042
2018-07-09T07:15:08.789Z,1892
2018-07-09T07:16:14.196Z,2280
2018-07-09T07:17:19.638Z,2281
2018-07-09T07:18:25.045Z,2067
2018-07-09T07:19:30.450Z,1859
2018-07-09T07:20:35.863Z,1625
2018-07-09T07:21:41.276Z,1423
2018-07-09T07:22:46.684Z,1283
2018-07-09T07:23:52.110Z,1289
2018-07-09T07:24:57.515Z,1377
2018-07-09T07:26:02.972Z,1217
2018-07-09T07:27:09.337Z,1177
2018-07-09T07:28:14.737Z,1252
2018-07-09T07:29:20.145Z,1454
2018-07-09T07:30:25.550Z,1420
2018-07-09T07:31:30.951Z,1299
2018-07-09T07:32:36.364Z,1474
2018-07-09T07:33:41.775Z,1434
2018-07-09T07:34:48.172Z,1524
2018-07-09T07:35:53.580Z,1605
2018-07-09T07:36:58.982Z,1440
2018-07-09T07:38:04.393Z,1261
2018-07-09T07:39:09.803Z,1197
2018-07-09T07:40:15.208Z,1095
2018-07-09T07:41:20.612Z,1009
2018-07-09T07:42:26.034Z,1044
2018-07-09T07:43:31.441Z,1334
2018-07-09T07:44:36.852Z,1497
2018-07-09T07:45:42.250Z,1310
2018-07-09T07:46:47.655Z,1199
2018-07-09T07:47:53.069Z,1227
2018-07-09T07:48:58.477Z,1219
2018-07-09T07:50:03.880Z,1138
2018-07-09T07:51:09.286Z,1039
2018-07-09T07:52:14.697Z,976
2018-07-09T07:53:20.113Z,932
2018-07-09T07:54:25.518Z,908
2018-07-09T07:55:30.922Z,835
2018-07-09T07:56:36.328Z,907
2018-07-09T07:57:41.730Z,904
2018-07-09T07:58:47.147Z,814
2018-07-09T07:59:52.551Z,889
2018-07-09T08:00:57.956Z,994
2018-07-09T08:02:03.361Z,1385
2018-07-09T08:03:08.777Z,1877
2018-07-09T08:04:14.181Z,2181
2018-07-09T08:05:19.589Z,2327
2018-07-09T08:06:24.997Z,2715
2018-07-09T08:07:30.402Z,2673
2018-07-09T08:08:35.819Z,2650
2018-07-09T08:09:41.280Z,2568
2018-07-09T08:10:46.630Z,2559
2018-07-09T08:11:52.033Z,2556
2018-07-09T08:13:13.742Z,2663
2018-07-09T08:14:03.861Z,2703
2018-07-09T08:15:09.264Z,2579
2018-07-09T08:16:14.664Z,2401
2018-07-09T08:17:20.074Z,2263
2018-07-09T08:18:25.482Z,2068
2018-07-09T08:19:31.878Z,2229
2018-07-09T08:20:37.282Z,2209
2018-07-09T08:21:42.691Z,2047
2018-07-09T08:22:48.099Z,1815
2018-07-09T08:23:53.512Z,1754
2018-07-09T08:24:58.931Z,1962
2018-07-09T08:26:04.324Z,2478
2018-07-09T08:27:09.730Z,2415
2018-07-09T08:28:15.158Z,2108
2018-07-09T08:29:20.576Z,2041
2018-07-09T08:30:25.972Z,2491
2018-07-09T08:31:31.378Z,2519
2018-07-09T08:32:36.780Z,2361
2018-07-09T08:33:42.194Z,2363
2018-07-09T08:34:47.601Z,2153
2018-07-09T08:35:53.004Z,2156
2018-07-09T08:36:58.408Z,2227
2018-07-09T08:38:03.951Z,2008
2018-07-09T08:39:09.230Z,1937
2018-07-09T08:40:14.639Z,1905
2018-07-09T08:41:21.034Z,2221
2018-07-09T08:42:26.440Z,2586
2018-07-09T08:43:31.854Z,2269
2018-07-09T08:44:37.290Z,1989
2018-07-09T08:45:42.700Z,2277
2018-07-09T08:46:48.100Z,2684
2018-07-09T08:47:53.503Z,2853
2018-07-09T08:48:58.920Z,3114
2018-07-09T08:50:04.325Z,3039
2018-07-09T08:51:09.728Z,3129
2018-07-09T08:52:15.132Z,2397
2018-07-09T08:53:20.535Z,1395
2018-07-09T08:54:25.952Z,1305
2018-07-09T08:55:31.358Z,1453
2018-07-09T08:56:36.767Z,1412
2018-07-09T08:57:42.166Z,1205
2018-07-09T08:58:47.590Z,1538
2018-07-09T08:59:52.998Z,2392
2018-07-09T09:00:58.403Z,2958
2018-07-09T09:02:03.808Z,1893
2018-07-09T09:03:09.216Z,1723
2018-07-09T09:04:14.633Z,1775
2018-07-09T09:05:20.040Z,1577
2018-07-09T09:06:25.443Z,1741
2018-07-09T09:07:30.850Z,2378
2018-07-09T09:08:37.245Z,2939
2018-07-09T09:09:42.663Z,3001
2018-07-09T09:10:48.065Z,3287
2018-07-09T09:11:53.473Z,3080
2018-07-09T09:12:58.877Z,2570
2018-07-09T09:14:04.307Z,2697
2018-07-09T09:15:09.715Z,2399
2018-07-09T09:16:15.124Z,2430
2018-07-09T09:17:20.529Z,2480
2018-07-09T09:18:26.926Z,2292
2018-07-09T09:19:32.341Z,2135
2018-07-09T09:20:37.753Z,2512
2018-07-09T09:21:43.154Z,2543
2018-07-09T09:22:48.558Z,2636
2018-07-09T09:23:53.962Z,2616
2018-07-09T09:24:59.385Z,2422
2018-07-09T09:26:04.821Z,2122
2018-07-09T09:27:11.214Z,1596
2018-07-09T09:28:16.617Z,1417
2018-07-09T09:29:22.045Z,1518
2018-07-09T09:30:27.450Z,1317
2018-07-09T09:31:32.869Z,1122
2018-07-09T09:32:38.262Z,1059
2018-07-09T09:33:43.669Z,1081
2018-07-09T09:34:49.082Z,1139
2018-07-09T09:35:54.488Z,1389
2018-07-09T09:36:59.900Z,1777
2018-07-09T09:38:05.303Z,1355
2018-07-09T09:39:10.706Z,998
2018-07-09T09:40:16.121Z,836
2018-07-09T09:41:21.529Z,836
2018-07-09T09:42:26.934Z,801
2018-07-09T09:43:33.333Z,808
2018-07-09T09:44:38.750Z,796
2018-07-09T09:45:44.150Z,959
2018-07-09T09:46:49.557Z,1532
2018-07-09T09:47:54.961Z,1807
2018-07-09T09:49:00.373Z,2358
2018-07-09T09:50:05.793Z,2531
2018-07-09T09:51:11.211Z,2176
2018-07-09T09:52:16.609Z,2112
2018-07-09T09:53:22.016Z,1834
2018-07-09T09:54:27.426Z,1544
2018-07-09T09:55:32.835Z,1291
2018-07-09T09:56:38.257Z,1118
2018-07-09T09:57:43.666Z,1351
2018-07-09T09:58:49.076Z,2044
2018-07-09T09:59:54.491Z,2147
2018-07-09T10:00:59.901Z,2182
2018-07-09T10:02:05.307Z,1609
2018-07-09T10:03:10.715Z,1573
2018-07-09T10:04:16.117Z,1369
2018-07-09T10:05:21.538Z,1253
2018-07-09T10:06:26.948Z,1362
2018-07-09T10:07:32.351Z,1403
2018-07-09T10:08:37.823Z,1356
2018-07-09T10:09:43.163Z,1322
2018-07-09T10:10:48.578Z,1915
2018-07-09T10:11:53.989Z,2535
2018-07-09T10:12:59.393Z,2749
2018-07-09T10:14:04.807Z,2215
2018-07-09T10:15:10.215Z,2285
2018-07-09T10:16:15.641Z,2763
2018-07-09T10:17:21.049Z,2333
2018-07-09T10:18:27.461Z,1709
2018-07-09T10:19:32.870Z,1414
2018-07-09T10:20:38.284Z,950
2018-07-09T10:21:43.686Z,628
2018-07-09T10:22:49.209Z,441
2018-07-09T10:23:54.492Z,342
2018-07-09T10:24:59.893Z,355
2018-07-09T10:26:05.313Z,598
2018-07-09T10:27:10.714Z,967
2018-07-09T10:28:16.118Z,1332
2018-07-09T10:29:21.519Z,1538
2018-07-09T10:30:26.952Z,1292
2018-07-09T10:31:32.352Z,1275
2018-07-09T10:32:37.766Z,1466
2018-07-09T10:33:43.174Z,2076
2018-07-09T10:34:48.581Z,3077
2018-07-09T10:35:53.996Z,3529
2018-07-09T10:36:59.400Z,2935
2018-07-09T10:38:04.824Z,1997
2018-07-09T10:39:10.232Z,1727
2018-07-09T10:40:15.634Z,1951
2018-07-09T10:41:21.063Z,2040
2018-07-09T10:42:26.466Z,1751
2018-07-09T10:43:31.877Z,1350
2018-07-09T10:44:37.285Z,1018
2018-07-09T10:45:42.704Z,1005
2018-07-09T10:46:48.110Z,1361
2018-07-09T10:47:53.515Z,1633
2018-07-09T10:48:58.922Z,1853
2018-07-09T10:50:04.325Z,2404
2018-07-09T10:51:09.745Z,2532
2018-07-09T10:52:15.147Z,2506
2018-07-09T10:53:20.556Z,2362
2018-07-09T10:54:25.969Z,2315
2018-07-09T10:55:31.376Z,1904
2018-07-09T10:56:36.784Z,1578
2018-07-09T10:57:42.188Z,1347
2018-07-09T10:58:47.602Z,1173
2018-07-09T10:59:52.998Z,1023
2018-07-09T11:00:59.405Z,859
2018-07-09T11:02:04.815Z,799
2018-07-09T11:03:11.207Z,758
2018-07-09T11:04:16.612Z,622
2018-07-09T11:05:22.018Z,480
2018-07-09T11:06:27.434Z,450
2018-07-09T11:07:32.840Z,466
2018-07-09T11:08:38.243Z,478
2018-07-09T11:09:43.732Z,540
2018-07-09T11:10:49.058Z,739
2018-07-09T11:11:54.473Z,1119
2018-07-09T11:12:59.878Z,1807
2018-07-09T11:14:05.310Z,2854
2018-07-09T11:15:10.719Z,4086
2018-07-09T11:16:16.193Z,4231
2018-07-09T11:17:21.538Z,4339
2018-07-09T11:18:26.943Z,3794
2018-07-09T11:19:32.372Z,3651
2018-07-09T11:20:37.783Z,3411
2018-07-09T11:21:43.273Z,3065
2018-07-09T11:22:48.605Z,2909
2018-07-09T11:23:54.008Z,2623
2018-07-09T11:24:59.407Z,2594
2018-07-09T11:26:04.848Z,3069
2018-07-09T11:27:11.246Z,3723
2018-07-09T11:28:16.654Z,3422
2018-07-09T11:29:23.058Z,4129
2018-07-09T11:30:28.451Z,4154
2018-07-09T11:31:33.865Z,2652
2018-07-09T11:32:39.271Z,2263
2018-07-09T11:33:44.678Z,2916
2018-07-09T11:34:50.084Z,3389
2018-07-09T11:35:55.505Z,3331
2018-07-09T11:37:00.900Z,2368
2018-07-09T11:38:06.309Z,2044
2018-07-09T11:39:11.713Z,1825
2018-07-09T11:40:17.116Z,1713
2018-07-09T11:41:22.544Z,1890
2018-07-09T11:42:27.957Z,2148
2018-07-09T11:43:33.362Z,2534
2018-07-09T11:44:38.786Z,2619
2018-07-09T11:45:44.168Z,2556
2018-07-09T11:46:49.584Z,3408
2018-07-09T11:47:54.987Z,3590
2018-07-09T11:49:00.393Z,3650
2018-07-09T11:50:05.801Z,3765
2018-07-09T11:51:11.206Z,4340
2018-07-09T11:52:16.626Z,3017
2018-07-09T11:53:22.029Z,3343
2018-07-09T11:54:27.436Z,3339
2018-07-09T11:55:32.843Z,2006
2018-07-09T11:56:38.254Z,1940
2018-07-09T11:57:43.664Z,2344
2018-07-09T11:58:49.241Z,2557
2018-07-09T11:59:54.602Z,2908
2018-07-09T12:01:00.009Z,3511
2018-07-09T12:02:06.415Z,2919
2018-07-09T12:03:12.813Z,2683
2018-07-09T12:04:18.215Z,2553
2018-07-09T12:05:23.619Z,2690
2018-07-09T12:06:29.023Z,3030
2018-07-09T12:07:34.444Z,3303
2018-07-09T12:08:39.849Z,3114
2018-07-09T12:09:45.256Z,2577
2018-07-09T12:10:50.660Z,2450
2018-07-09T12:11:56.070Z,2524
2018-07-09T12:13:01.483Z,2553
2018-07-09T12:14:06.895Z,2820
2018-07-09T12:15:12.299Z,3341
2018-07-09T12:16:17.702Z,3517
2018-07-09T12:17:23.119Z,3313
2018-07-09T12:18:28.524Z,2819
2018-07-09T12:19:33.928Z,2578
2018-07-09T12:20:39.337Z,2315
2018-07-09T12:21:44.791Z,2374
2018-07-09T12:22:50.160Z,2281
2018-07-09T12:23:55.558Z,2292
2018-07-09T12:25:00.962Z,2431
2018-07-09T12:26:06.372Z,2237
2018-07-09T12:27:11.774Z,2345
2018-07-09T12:28:17.196Z,2445
2018-07-09T12:29:22.607Z,2573
2018-07-09T12:30:28.012Z,2994
2018-07-09T12:31:33.425Z,3227
2018-07-09T12:32:38.842Z,3077
2018-07-09T12:33:44.250Z,2966
2018-07-09T12:34:49.655Z,3269
2018-07-09T12:35:55.061Z,3395
2018-07-09T12:37:01.468Z,3256
2018-07-09T12:38:06.885Z,3073
2018-07-09T12:39:12.287Z,3059
2018-07-09T12:40:17.691Z,2791
2018-07-09T12:41:23.099Z,3515
2018-07-09T12:42:28.508Z,4490
2018-07-09T12:43:34.929Z,4158
2018-07-09T12:44:40.331Z,4166
2018-07-09T12:45:45.740Z,3631
2018-07-09T12:46:51.144Z,3239
2018-07-09T12:47:56.561Z,2686
2018-07-09T12:49:01.963Z,2535
2018-07-09T12:50:07.369Z,2483
2018-07-09T12:51:12.771Z,2489
2018-07-09T12:52:18.176Z,2599
2018-07-09T12:53:23.590Z,2200
2018-07-09T12:54:28.999Z,2357
2018-07-09T12:55:34.401Z,4186
2018-07-09T12:56:39.805Z,4479
2018-07-09T12:57:45.210Z,4341
2018-07-09T12:58:50.626Z,4384
2018-07-09T12:59:56.027Z,4771
2018-07-09T13:01:01.441Z,4660
2018-07-09T13:02:06.839Z,3574
2018-07-09T13:03:12.265Z,2679
2018-07-09T13:04:17.671Z,2083
2018-07-09T13:05:23.077Z,1824
2018-07-09T13:06:28.480Z,1686
2018-07-09T13:07:33.885Z,1498
2018-07-09T13:08:39.303Z,1401
2018-07-09T13:09:44.709Z,1262
2018-07-09T13:10:50.121Z,1416
2018-07-09T13:11:55.523Z,1752
2018-07-09T13:13:00.930Z,1908
2018-07-09T13:14:06.366Z,2436
2018-07-09T13:15:11.771Z,2752
2018-07-09T13:16:17.174Z,2989
2018-07-09T13:17:22.579Z,3315
2018-07-09T13:18:27.984Z,2610
2018-07-09T13:19:34.409Z,1849
2018-07-09T13:20:39.816Z,1613
2018-07-09T13:21:45.222Z,1094
2018-07-09T13:22:50.639Z,760
2018-07-09T13:23:56.053Z,591
2018-07-09T13:25:01.461Z,475
2018-07-09T13:26:07.851Z,336
2018-07-09T13:27:13.258Z,282
2018-07-09T13:28:18.668Z,277
2018-07-09T13:29:24.076Z,353
2018-07-09T13:30:29.480Z,545
2018-07-09T13:31:34.899Z,919
2018-07-09T13:32:41.297Z,1262
2018-07-09T13:33:46.717Z,1331
2018-07-09T13:34:52.118Z,1660
2018-07-09T13:35:57.525Z,2138
2018-07-09T13:37:02.932Z,2539
2018-07-09T13:38:08.341Z,3408
2018-07-09T13:39:13.769Z,3701
2018-07-09T13:40:19.173Z,3702
2018-07-09T13:41:24.580Z,3954
2018-07-09T13:42:29.984Z,3872
2018-07-09T13:43:35.392Z,3664
2018-07-09T13:44:40.808Z,3596
2018-07-09T13:45:46.213Z,3949
2018-07-09T13:46:51.617Z,3528
2018-07-09T13:47:57.026Z,3369
2018-07-09T13:49:02.508Z,3770
2018-07-09T13:50:07.849Z,3941
2018-07-09T13:51:13.260Z,3204
2018-07-09T13:52:18.662Z,2688
2018-07-09T13:53:24.066Z,2158
2018-07-09T13:54:29.496Z,2052
2018-07-09T13:55:34.895Z,1963
2018-07-09T13:56:40.302Z,2356
2018-07-09T13:57:45.702Z,2383
2018-07-09T13:58:51.117Z,2606
2018-07-09T13:59:56.532Z,3160
2018-07-09T14:01:01.935Z,2616
2018-07-09T14:02:07.339Z,2271
2018-07-09T14:03:12.754Z,2819
2018-07-09T14:04:18.168Z,3035
2018-07-09T14:05:23.571Z,3135
2018-07-09T14:06:28.999Z,3236
2018-07-09T14:07:34.408Z,3873
2018-07-09T14:08:39.811Z,4382
2018-07-09T14:09:45.239Z,4620
2018-07-09T14:10:50.643Z,4583
2018-07-09T14:11:56.052Z,3239
2018-07-09T14:13:01.459Z,4973
2018-07-09T14:14:06.887Z,3761
2018-07-09T14:15:12.291Z,3439
2018-07-09T14:16:17.702Z,4586
2018-07-09T14:17:23.118Z,4628
2018-07-09T14:18:28.528Z,4759
2018-07-09T14:19:33.944Z,4864
2018-07-09T14:20:39.349Z,4804
2018-07-09T14:21:44.772Z,4626
2018-07-09T14:22:50.173Z,4393
2018-07-09T14:23:55.580Z,4042
2018-07-09T14:25:01.002Z,4071
2018-07-09T14:26:06.412Z,3622
2018-07-09T14:27:11.818Z,3515
2018-07-09T14:28:18.219Z,3478
2018-07-09T14:29:23.631Z,3692
2018-07-09T14:30:29.045Z,3355
2018-07-09T14:31:34.448Z,3723
2018-07-09T14:32:39.853Z,4391
2018-07-09T14:33:45.258Z,4866
2018-07-09T14:34:50.670Z,5031
2018-07-09T14:35:56.089Z,4468
2018-07-09T14:37:01.551Z,4857
2018-07-09T14:38:06.898Z,3997
2018-07-09T14:39:12.313Z,3607
2018-07-09T14:40:17.745Z,3275
2018-07-09T14:41:23.157Z,3572
2018-07-09T14:42:28.561Z,3853
2018-07-09T14:43:33.964Z,2978
2018-07-09T14:44:39.375Z,2630
2018-07-09T14:45:44.794Z,3140
2018-07-09T14:46:50.229Z,3620
2018-07-09T14:47:55.635Z,3316
2018-07-09T14:49:02.033Z,2342
2018-07-09T14:50:08.431Z,2012
2018-07-09T14:51:13.844Z,3430
2018-07-09T14:52:19.264Z,3636
2018-07-09T14:53:24.672Z,3381
2018-07-09T14:54:31.062Z,2747
2018-07-09T14:55:36.483Z,1513
2018-07-09T14:56:41.882Z,1773
2018-07-09T14:57:47.290Z,2518
2018-07-09T14:58:52.697Z,2707